Airfield :
LOGIN :

Register | Disclaimer

   EN    FR    IT 

 










Legend :    VFR   Marginal VFR   IFR   Intensive IFR   Very Intensive IFR
Visi :
Ceiling :
>= 8 km
>= 3000ft
5 to 8 km
1000 to 3000 ft
1500m to 5 km
500 to 1000 ft
800 to 1500m
200 to 500 ft
< 800m
< 200 ft
Symbols :   Thunderstorms  Fog  Heavy snow  Heavy precipitations  Wind > 20 kt
SIGMETs :     Misc.  Thunderstorms  Icing  Turbulence  Mountain Waves  Volcanic Ashes







- Airport Elevation : 100 ft


EBDT - Schaffen

CURRENT METAR :
  • 222155Z AUTO 25006KT 9999 FEW100/// BKN110/// OVC170/// 19/11 Q1012 BLU

EXPIRED METARs :
  • 222125Z AUTO 27007KT 9999 BKN110/// 19/11 Q1012 BLU
  • 222055Z AUTO 29005KT 9999 FEW095/// 19/13 Q1011 BLU
  • 222025Z AUTO 30006KT 9999 NCD 19/13 Q1011 BLU
  • 221955Z AUTO 30004KT 9999 NCD 20/12 Q1011 BLU
  • 221925Z AUTO 27003KT 9999 FEW140/// 21/09 Q1011 BLU

Expired Forecast.
No reported NOTAMs for that airfield.



MET'MAP, your aeronautical weather chart ! - Copyright ORBIFLY December 2007 - Disclaimer

ORBIFLY MET'MAP TEAM :

Programming & Development : Alexandra Zaïnal
Concept & Development : Baudouin d'Aumeries
Co-Development & Prog : Marc-Olivier Méhu
Technical & hardware support : Manuel Goepfert

Contact : metmap@orbifly.com




SOURCES & CREDITS :

   NOAA